»·PEaware :: DENPR KFUL-KPSP

DENPR :: KFUL-KPSP

FLIGHT INFORMATION

Flight Status: Arrived
Operator: Unknown
More flights by this operator :: More flights under this callsign
Pilot: Horst D. (29405)
Aircraft: Unknown
(P28U)
More flights by this aircraft type
Origin: KFUL Fullerton Mun
United States
Destination: KPSP Palm Springs Intl
United States
More flights between these airports :: More routes between these airports
Route: SLI V64 TRM
File this flight plan on PilotEdge
Remarks:
Altitude:
(Current/Filed)
9,000ft
Speed:
(Current/Filed)
130kts
Departed: 23-Dec-20 10:58 AM
Arrived: 23-Dec-20 11:54 AM
Distance/Time
Traveled:
74nm/0:56
Distance/Time
To Go:
Arrived

Flight Plot

Page will automatically refresh every two minutes.


Map Options




Map Legend


Flown Route
Filed Route
Departure Airport
Arrival Airport
Navaid (VOR, NDB)
Fix

Horizontal Profiles

Position Reports

Time Latitude Longitude Heading Altitude Ground
Speed
23-Dec-20 10:44 33.871162 -117.978179 259 97ft 0kts
23-Dec-20 10:45 33.871162 -117.978179 259 97ft 0kts
23-Dec-20 10:46 33.871162 -117.978179 259 97ft 0kts
23-Dec-20 10:47 33.871162 -117.978179 259 97ft 0kts
23-Dec-20 10:48 33.871162 -117.978179 259 97ft 0kts
23-Dec-20 10:49 33.871162 -117.978179 259 97ft 0kts
23-Dec-20 10:50 33.871162 -117.978179 259 97ft 0kts
23-Dec-20 10:51 33.871162 -117.978179 259 97ft 0kts
23-Dec-20 10:52 33.871162 -117.978179 259 97ft 0kts
23-Dec-20 10:53 33.871160 -117.978193 258 97ft 1kts
23-Dec-20 10:54 33.872452 -117.975375 79 99ft 14kts
23-Dec-20 10:55 33.872550 -117.974872 39 100ft 0kts
23-Dec-20 10:56 33.872919 -117.974900 296 100ft 6kts
23-Dec-20 10:57 33.868533 -117.993701 240 623ft 82kts
23-Dec-20 10:58 33.848951 -117.985600 137 1605ft 97kts
23-Dec-20 10:59 33.829778 -117.964057 134 2333ft 95kts
23-Dec-20 11:00 33.811719 -117.941880 136 3074ft 94kts
23-Dec-20 11:01 33.794102 -117.920100 107 3780ft 88kts
23-Dec-20 11:02 33.788300 -117.892501 92 4509ft 82kts
23-Dec-20 11:03 33.781665 -117.866057 101 5244ft 82kts
23-Dec-20 11:04 33.774689 -117.838977 99 5872ft 85kts
23-Dec-20 11:05 33.769675 -117.810128 98 6409ft 90kts
23-Dec-20 11:06 33.763733 -117.780348 99 6986ft 92kts
23-Dec-20 11:07 33.760262 -117.749555 92 7534ft 94kts
23-Dec-20 11:08 33.757827 -117.717957 92 8074ft 95kts
23-Dec-20 11:09 33.755372 -117.685826 92 8646ft 97kts
23-Dec-20 11:10 33.752648 -117.651674 93 8970ft 115kts
23-Dec-20 11:11 33.749259 -117.610903 93 8976ft 127kts
23-Dec-20 11:12 33.745945 -117.568225 93 8982ft 130kts
23-Dec-20 11:13 33.742540 -117.525570 93 8928ft 128kts
23-Dec-20 11:14 33.739533 -117.485557 92 8939ft 115kts
23-Dec-20 11:15 33.736526 -117.447695 93 8985ft 116kts
23-Dec-20 11:16 33.733261 -117.407168 93 8985ft 126kts
23-Dec-20 11:17 33.729667 -117.364589 93 8961ft 130kts
23-Dec-20 11:18 33.726181 -117.321559 93 8971ft 129kts
23-Dec-20 11:19 33.722683 -117.278286 93 8967ft 130kts
23-Dec-20 11:20 33.719183 -117.234927 93 8987ft 130kts
23-Dec-20 11:21 33.715675 -117.191323 92 8982ft 130kts
23-Dec-20 11:23 33.712127 -117.147837 92 8996ft 131kts
23-Dec-20 11:24 33.708515 -117.103573 94 8920ft 134kts
23-Dec-20 11:25 33.705144 -117.059793 92 8955ft 132kts
23-Dec-20 11:26 33.701506 -117.015344 92 8974ft 132kts
23-Dec-20 11:27 33.697847 -116.970885 92 8972ft 134kts
23-Dec-20 11:28 33.694202 -116.926620 92 9056ft 134kts
23-Dec-20 11:29 33.690393 -116.882182 92 9124ft 135kts
23-Dec-20 11:30 33.686653 -116.837332 92 9147ft 136kts
23-Dec-20 11:31 33.682759 -116.791740 92 9048ft 137kts
23-Dec-20 11:32 33.678924 -116.746326 91 9072ft 132kts
23-Dec-20 11:33 33.675179 -116.701874 91 9106ft 136kts
23-Dec-20 11:34 33.671257 -116.657407 92 8983ft 133kts
23-Dec-20 11:35 33.667598 -116.614141 91 8958ft 129kts
23-Dec-20 11:36 33.663904 -116.571217 91 8936ft 130kts
23-Dec-20 11:37 33.660261 -116.528038 91 9009ft 132kts
23-Dec-20 11:38 33.656482 -116.484805 92 8925ft 131kts
23-Dec-20 11:38 33.652935 -116.447290 92 8122ft 139kts
23-Dec-20 11:40 33.648202 -116.393691 92 7238ft 136kts
23-Dec-20 11:40 33.645001 -116.355556 91 6964ft 136kts
23-Dec-20 11:41 33.646795 -116.312628 39 6629ft 136kts
23-Dec-20 11:43 33.681159 -116.287216 30 5748ft 127kts
23-Dec-20 11:43 33.705742 -116.269693 30 5131ft 123kts
23-Dec-20 11:44 33.729949 -116.292492 305 4225ft 128kts
23-Dec-20 11:45 33.748190 -116.328284 305 3480ft 125kts
23-Dec-20 11:46 33.766089 -116.364104 305 2965ft 125kts
23-Dec-20 11:47 33.784169 -116.400053 305 2933ft 126kts
23-Dec-20 11:48 33.802209 -116.435928 306 2938ft 126kts
23-Dec-20 11:49 33.813173 -116.474719 249 2804ft 135kts
23-Dec-20 11:50 33.793311 -116.462342 49 2079ft 126kts
23-Dec-20 11:51 33.812579 -116.478541 277 1306ft 108kts
23-Dec-20 11:52 33.823001 -116.498993 323 442ft 60kts
23-Dec-20 11:53 33.829968 -116.504456 51 428ft 0kts
23-Dec-20 11:54 33.829968 -116.504456 51 428ft 0kts
23-Dec-20 11:55 33.825590 -116.500179 142 411ft 28kts
23-Dec-20 11:56 33.822904 -116.497171 51 398ft 0kts
23-Dec-20 11:57 33.822904 -116.497171 50 398ft 0kts

Navigation Log

Ident Type
Flight plan parsing failed, navigation log unavailable